Rockwall's Hourly Summary for Thursday, May 10, 2018
Hour Temp
(f)
RH
(%)
Solar Rad.
(MJ/m2)
Rainfall
(in)
Wind
(mph)
5/10/2018 12:00 AM 73 57 0 0 4.86
5/10/2018 1:00 AM 73 56 0 0 4.78
5/10/2018 2:00 AM 73 53 0 0 5.16
5/10/2018 3:00 AM 71 53 0 0 5.13
5/10/2018 4:00 AM 69 57 0 0 4.6
5/10/2018 5:00 AM 67 61 0 0 4.19
5/10/2018 6:00 AM 66 64 0 0 4.24
5/10/2018 7:00 AM 63 72 0.03 0 2.44
5/10/2018 8:00 AM 65 77 0.52 0 5.64
5/10/2018 9:00 AM 68 76 1.21 0 6
5/10/2018 10:00 AM 71 70 1.98 0 4.05
5/10/2018 11:00 AM 74 59 2.46 0 4.83
5/10/2018 12:00 PM 77 50 2.94 0 4.86
5/10/2018 1:00 PM 80 45 3.14 0 6.93
5/10/2018 2:00 PM 81 46 3.12 0 7.39
5/10/2018 3:00 PM 83 43 2.88 0 6.81
5/10/2018 4:00 PM 83 40 2.56 0 7.51
5/10/2018 5:00 PM 83 42 1.66 0 7.38
5/10/2018 6:00 PM 83 44 1.41 0 8.41
5/10/2018 7:00 PM 82 44 0.53 0 8.39
5/10/2018 8:00 PM 81 44 0.08 0 6.24
5/10/2018 9:00 PM 78 49 0.01 0 4.15
5/10/2018 10:00 PM 75 56 0 0 3.96
5/10/2018 11:00 PM 74 59 0 0 5.3
Data Summary 74 54 24.53 0.00 5.55